createdAt,value
2022-08-11T04:00:37.108Z,0.00
2022-08-11T04:01:37.102Z,0.00
2022-08-11T04:02:37.305Z,0.00
2022-08-11T04:03:37.053Z,0.00
2022-08-11T04:04:37.029Z,0.00
2022-08-11T04:05:37.018Z,0.00
2022-08-11T04:06:37.010Z,0.00
2022-08-11T04:07:36.995Z,0.00
2022-08-11T04:08:36.994Z,0.00
2022-08-11T04:09:36.972Z,0.00
2022-08-11T04:10:36.994Z,0.00
2022-08-11T04:11:41.974Z,0.00
2022-08-11T04:12:37.198Z,0.00
2022-08-11T04:13:36.946Z,0.00
2022-08-11T04:14:36.915Z,0.00
2022-08-11T04:15:36.906Z,0.00
2022-08-11T04:16:36.895Z,0.00
2022-08-11T04:17:36.883Z,0.00
2022-08-11T04:18:36.887Z,0.00
2022-08-11T04:19:36.865Z,0.00
2022-08-11T04:20:36.850Z,0.00
2022-08-11T04:21:36.842Z,0.00
2022-08-11T04:22:41.849Z,0.00
2022-08-11T04:24:34.929Z,0.00
2022-08-11T04:24:39.814Z,5.62
2022-08-11T04:25:57.616Z,5.62
2022-08-11T04:26:37.785Z,5.62
2022-08-11T04:27:39.073Z,5.62
2022-08-11T04:28:43.036Z,5.62
2022-08-11T04:30:03.547Z,5.62
2022-08-11T04:30:39.340Z,5.62
2022-08-11T04:31:51.413Z,5.62
2022-08-11T04:32:37.868Z,5.62
2022-08-11T04:33:41.746Z,5.62
2022-08-11T04:34:36.698Z,5.62
2022-08-11T04:35:36.684Z,5.62
2022-08-11T04:36:36.675Z,5.62
2022-08-11T04:37:36.663Z,5.62
2022-08-11T04:38:36.663Z,11.25
2022-08-11T04:39:36.661Z,11.25
2022-08-11T04:40:36.635Z,11.25
2022-08-11T04:41:36.621Z,11.25
2022-08-11T04:42:36.608Z,11.25
2022-08-11T04:43:36.617Z,11.25
2022-08-11T04:44:42.604Z,11.25
2022-08-11T04:45:36.575Z,11.25
2022-08-11T04:46:36.566Z,11.25
2022-08-11T04:48:01.858Z,11.25
2022-08-11T04:48:37.559Z,11.25
2022-08-11T04:49:36.563Z,16.88
2022-08-11T04:50:36.515Z,16.88
2022-08-11T04:51:36.509Z,16.88
2022-08-11T04:52:38.305Z,16.88
2022-08-11T04:53:36.486Z,16.88
2022-08-11T04:54:36.480Z,16.88
2022-08-11T04:55:41.484Z,16.88
2022-08-11T04:56:36.456Z,16.88
2022-08-11T04:57:36.439Z,16.88
2022-08-11T04:58:36.429Z,16.88
2022-08-11T04:59:36.434Z,16.88
2022-08-11T05:00:36.407Z,22.50
2022-08-11T05:01:37.602Z,22.50
2022-08-11T05:02:36.541Z,22.50
2022-08-11T05:03:36.394Z,22.50
2022-08-11T05:04:36.377Z,22.50
2022-08-11T05:05:36.353Z,22.50
2022-08-11T05:06:41.361Z,22.50
2022-08-11T05:07:36.328Z,22.50
2022-08-11T05:08:36.316Z,22.50
2022-08-11T05:09:36.317Z,22.50
2022-08-11T05:10:43.080Z,22.50
2022-08-11T05:11:37.285Z,28.12
2022-08-11T05:12:36.424Z,28.12
2022-08-11T05:13:36.265Z,28.12
2022-08-11T05:14:36.266Z,28.12
2022-08-11T05:15:42.982Z,28.12
2022-08-11T05:16:37.226Z,28.12
2022-08-11T05:17:41.252Z,28.12
2022-08-11T05:18:36.205Z,28.12
2022-08-11T05:19:36.216Z,28.12
2022-08-11T05:20:36.184Z,28.12
2022-08-11T05:21:44.676Z,28.12
2022-08-11T05:22:37.440Z,28.12
2022-08-11T05:23:36.154Z,33.75
2022-08-11T05:24:36.153Z,33.75
2022-08-11T05:26:44.509Z,33.75
2022-08-11T05:26:46.220Z,33.75
2022-08-11T05:27:37.106Z,33.75
2022-08-11T05:28:41.116Z,33.75
2022-08-11T05:29:36.094Z,33.75
2022-08-11T05:30:36.078Z,33.75
2022-08-11T05:31:36.063Z,33.75
2022-08-11T05:32:36.066Z,33.75
2022-08-11T05:33:36.040Z,33.75
2022-08-11T05:34:36.047Z,33.75
2022-08-11T05:36:02.267Z,33.75
2022-08-11T05:36:37.009Z,33.75
2022-08-11T05:37:35.997Z,33.75
2022-08-11T05:38:36.002Z,33.75
2022-08-11T05:39:41.089Z,33.75
2022-08-11T05:40:35.963Z,33.75
2022-08-11T05:41:35.949Z,33.75
2022-08-11T05:42:35.940Z,39.38
2022-08-11T05:43:35.942Z,39.38
2022-08-11T05:44:35.924Z,33.75
2022-08-11T05:46:02.832Z,33.75
2022-08-11T05:46:36.896Z,33.75
2022-08-11T05:47:35.883Z,39.38
2022-08-11T05:48:35.886Z,39.38
2022-08-11T05:49:35.877Z,39.38
2022-08-11T05:50:40.883Z,39.38
2022-08-11T05:51:35.839Z,39.38
2022-08-11T05:52:41.614Z,39.38
2022-08-11T05:53:46.106Z,39.38
2022-08-11T05:54:36.809Z,39.38
2022-08-11T05:55:35.794Z,39.38
2022-08-11T05:56:36.783Z,39.38
2022-08-11T05:57:44.048Z,39.38
2022-08-11T05:58:41.299Z,45.00
2022-08-11T05:59:36.770Z,45.00
2022-08-11T06:00:35.740Z,50.62
2022-08-11T06:01:40.807Z,61.88
2022-08-11T06:02:35.802Z,67.50
2022-08-11T06:03:35.705Z,61.88
2022-08-11T06:04:35.709Z,56.25
2022-08-11T06:05:38.362Z,50.62
2022-08-11T06:06:36.678Z,56.25
2022-08-11T06:07:49.025Z,56.25
2022-08-11T06:08:36.652Z,50.62
2022-08-11T06:09:35.652Z,50.62
2022-08-11T06:10:35.631Z,50.62
2022-08-11T06:11:42.985Z,50.62
2022-08-11T06:12:41.931Z,50.62
2022-08-11T06:13:35.605Z,56.25
2022-08-11T06:14:35.586Z,56.25
2022-08-11T06:15:35.572Z,56.25
2022-08-11T06:16:35.564Z,61.88
2022-08-11T06:17:38.638Z,61.88
2022-08-11T06:18:35.667Z,56.25
2022-08-11T06:19:35.530Z,50.62
2022-08-11T06:20:35.519Z,50.62
2022-08-11T06:21:35.521Z,56.25
2022-08-11T06:22:35.505Z,56.25
2022-08-11T06:23:40.538Z,61.88
2022-08-11T06:24:35.488Z,67.50
2022-08-11T06:25:35.470Z,61.88
2022-08-11T06:26:49.591Z,61.88
2022-08-11T06:27:36.446Z,61.88
2022-08-11T06:28:35.461Z,78.75
2022-08-11T06:29:37.855Z,106.88
2022-08-11T06:30:36.421Z,112.50
2022-08-11T06:31:35.399Z,106.88
2022-08-11T06:32:35.387Z,123.75
2022-08-11T06:33:35.390Z,146.25
2022-08-11T06:34:40.408Z,146.25
2022-08-11T06:35:35.355Z,112.50
2022-08-11T06:36:35.345Z,129.38
2022-08-11T06:37:36.719Z,123.75
2022-08-11T06:38:35.332Z,78.75
2022-08-11T06:39:35.354Z,67.50
2022-08-11T06:40:35.300Z,67.50
2022-08-11T06:41:35.298Z,67.50
2022-08-11T06:42:35.286Z,90.00
2022-08-11T06:43:35.277Z,95.62
2022-08-11T06:44:35.257Z,90.00
2022-08-11T06:45:40.263Z,84.38
2022-08-11T06:46:35.296Z,90.00
2022-08-11T06:47:35.221Z,90.00
2022-08-11T06:48:35.225Z,84.38
2022-08-11T06:49:35.199Z,84.38
2022-08-11T06:50:35.192Z,84.38
2022-08-11T06:51:35.176Z,78.75
2022-08-11T06:52:36.372Z,78.75
2022-08-11T06:53:35.165Z,78.75
2022-08-11T06:54:35.153Z,78.75
2022-08-11T06:55:57.506Z,73.12
2022-08-11T06:56:41.146Z,67.50
2022-08-11T06:57:35.133Z,67.50
2022-08-11T06:58:35.115Z,61.88
2022-08-11T06:59:35.090Z,61.88
2022-08-11T07:00:35.079Z,67.50
2022-08-11T07:01:35.133Z,67.50
2022-08-11T07:02:35.359Z,67.50
2022-08-11T07:03:35.057Z,67.50
2022-08-11T07:04:35.043Z,61.88
2022-08-11T07:05:35.028Z,61.88
2022-08-11T07:06:41.525Z,61.88
2022-08-11T07:07:41.025Z,67.50
2022-08-11T07:08:35.947Z,61.88
2022-08-11T07:09:34.983Z,61.88
2022-08-11T07:10:34.974Z,61.88
2022-08-11T07:11:34.958Z,67.50
2022-08-11T07:12:34.950Z,61.88
2022-08-11T07:13:44.165Z,67.50
2022-08-11T07:14:38.438Z,95.62
2022-08-11T07:16:13.327Z,84.38
2022-08-11T07:16:35.912Z,67.50
2022-08-11T07:17:34.894Z,61.88
2022-08-11T07:18:39.919Z,61.88
2022-08-11T07:19:34.879Z,67.50
2022-08-11T07:20:34.859Z,67.50
2022-08-11T07:22:00.281Z,67.50
2022-08-11T07:22:35.853Z,67.50
2022-08-11T07:23:34.848Z,67.50
2022-08-11T07:24:59.317Z,67.50
2022-08-11T07:25:35.811Z,67.50
2022-08-11T07:26:34.797Z,67.50
2022-08-11T07:27:37.328Z,67.50
2022-08-11T07:28:34.773Z,67.50
2022-08-11T07:29:39.794Z,67.50
2022-08-11T07:30:34.749Z,67.50
2022-08-11T07:31:34.753Z,67.50
2022-08-11T07:32:34.742Z,67.50
2022-08-11T07:34:07.645Z,67.50
2022-08-11T07:34:35.727Z,67.50
2022-08-11T07:35:34.704Z,78.75
2022-08-11T07:36:34.708Z,78.75
2022-08-11T07:37:34.685Z,73.12
2022-08-11T07:38:34.674Z,73.12
2022-08-11T07:39:34.752Z,73.12
2022-08-11T07:40:39.665Z,78.75
2022-08-11T07:41:34.630Z,78.75
2022-08-11T07:42:34.618Z,73.12
2022-08-11T07:43:34.618Z,84.38
2022-08-11T07:44:35.477Z,73.12
2022-08-11T07:45:34.584Z,73.12
2022-08-11T07:46:34.578Z,73.12
2022-08-11T07:47:34.572Z,73.12
2022-08-11T07:48:34.569Z,73.12
2022-08-11T07:49:34.556Z,73.12
2022-08-11T07:50:34.553Z,78.75
2022-08-11T07:51:39.588Z,73.12
2022-08-11T07:52:34.571Z,73.12
2022-08-11T07:53:34.495Z,78.75
2022-08-11T07:54:35.502Z,78.75
2022-08-11T07:55:51.502Z,78.75
2022-08-11T07:56:47.993Z,78.75
2022-08-11T07:58:14.529Z,84.38
2022-08-11T07:58:45.198Z,101.25
2022-08-11T08:00:04.166Z,106.88
2022-08-11T08:00:35.443Z,90.00
2022-08-11T08:01:34.459Z,84.38
2022-08-11T08:02:39.543Z,84.38
2022-08-11T08:03:34.399Z,84.38
2022-08-11T08:04:34.398Z,84.38
2022-08-11T08:05:34.365Z,84.38
2022-08-11T08:06:36.030Z,84.38
2022-08-11T08:07:34.368Z,84.38
2022-08-11T08:08:34.392Z,84.38
2022-08-11T08:09:34.343Z,84.38
2022-08-11T08:10:34.314Z,84.38
2022-08-11T08:11:34.317Z,101.25
2022-08-11T08:12:34.295Z,90.00
2022-08-11T08:13:39.302Z,90.00
2022-08-11T08:14:34.290Z,90.00
2022-08-11T08:15:34.255Z,90.00
2022-08-11T08:16:34.245Z,90.00
2022-08-11T08:17:34.233Z,90.00
2022-08-11T08:18:34.223Z,90.00
2022-08-11T08:19:34.214Z,90.00
2022-08-11T08:20:34.234Z,90.00
2022-08-11T08:21:34.190Z,90.00
2022-08-11T08:22:38.244Z,90.00
2022-08-11T08:23:35.168Z,90.00
2022-08-11T08:24:39.196Z,90.00
2022-08-11T08:25:34.149Z,90.00
2022-08-11T08:26:34.143Z,90.00
2022-08-11T08:27:34.129Z,90.00
2022-08-11T08:28:34.126Z,95.62
2022-08-11T08:29:34.107Z,95.62
2022-08-11T08:30:34.109Z,95.62
2022-08-11T08:31:34.090Z,95.62
2022-08-11T08:32:34.074Z,95.62
2022-08-11T08:33:34.061Z,95.62
2022-08-11T08:34:34.054Z,95.62
2022-08-11T08:35:55.744Z,95.62
2022-08-11T08:36:35.032Z,101.25
2022-08-11T08:37:46.026Z,101.25
2022-08-11T08:38:35.017Z,101.25
2022-08-11T08:39:34.056Z,101.25
2022-08-11T08:40:34.001Z,101.25
2022-08-11T08:41:33.982Z,101.25
2022-08-11T08:42:34.010Z,101.25
2022-08-11T08:43:47.506Z,140.62
2022-08-11T08:44:39.259Z,191.25
2022-08-11T08:45:34.943Z,95.62
2022-08-11T08:46:38.947Z,95.62
2022-08-11T08:47:41.100Z,101.25
2022-08-11T08:48:34.902Z,101.25
2022-08-11T08:49:33.892Z,101.25
2022-08-11T08:50:33.895Z,146.25
2022-08-11T08:51:54.788Z,331.88
2022-08-11T08:52:39.156Z,303.75
2022-08-11T08:53:34.844Z,101.25
2022-08-11T08:54:33.838Z,174.38
2022-08-11T08:55:33.852Z,275.62
2022-08-11T08:56:33.815Z,185.62
2022-08-11T08:57:39.811Z,157.50
2022-08-11T08:58:33.797Z,129.38
2022-08-11T08:59:47.457Z,354.38
2022-08-11T09:00:34.816Z,1198.12
2022-08-11T09:01:33.832Z,140.62
2022-08-11T09:02:35.104Z,348.75
2022-08-11T09:04:02.930Z,399.38
2022-08-11T09:04:34.726Z,140.62
2022-08-11T09:05:33.726Z,101.25
2022-08-11T09:06:33.709Z,101.25
2022-08-11T09:07:39.950Z,101.25
2022-08-11T09:08:39.714Z,106.88
2022-08-11T09:09:33.674Z,112.50
2022-08-11T09:10:33.670Z,168.75
2022-08-11T09:11:33.651Z,140.62
2022-08-11T09:12:36.077Z,106.88
2022-08-11T09:13:34.625Z,523.12
2022-08-11T09:14:33.616Z,416.25
2022-08-11T09:15:33.614Z,112.50
2022-08-11T09:16:33.595Z,106.88
2022-08-11T09:17:33.612Z,106.88
2022-08-11T09:18:33.921Z,106.88
2022-08-11T09:19:38.611Z,112.50
2022-08-11T09:20:33.561Z,112.50
2022-08-11T09:21:48.319Z,112.50
2022-08-11T09:22:34.532Z,123.75
2022-08-11T09:24:34.508Z,129.38
2022-08-11T09:25:33.509Z,135.00
2022-08-11T09:26:33.486Z,140.62
2022-08-11T09:27:33.562Z,101.25
2022-08-11T09:28:33.531Z,118.12
2022-08-11T09:29:33.454Z,590.62
2022-08-11T09:30:38.479Z,225.00
2022-08-11T09:31:37.197Z,236.25
2022-08-11T09:32:34.418Z,281.25
2022-08-11T09:33:33.406Z,652.50
2022-08-11T09:34:33.398Z,562.50
2022-08-11T09:35:33.397Z,455.62
2022-08-11T09:36:33.377Z,196.88
2022-08-11T09:37:55.633Z,219.38
2022-08-11T09:38:34.354Z,163.12
2022-08-11T09:39:33.404Z,151.88
2022-08-11T09:40:33.345Z,663.75
2022-08-11T09:41:55.620Z,1051.88
2022-08-11T09:42:34.312Z,360.00
2022-08-11T09:43:33.304Z,978.75
2022-08-11T09:44:33.289Z,573.75
2022-08-11T09:45:40.127Z,675.00
2022-08-11T09:46:34.272Z,1209.38
2022-08-11T09:47:33.266Z,298.12
2022-08-11T09:48:33.243Z,888.75
2022-08-11T09:49:33.239Z,540.00
2022-08-11T09:50:33.310Z,202.50
2022-08-11T09:51:33.224Z,264.38
2022-08-11T09:52:38.233Z,241.88
2022-08-11T09:53:36.730Z,191.25
2022-08-11T09:54:34.322Z,241.88
2022-08-11T09:55:33.188Z,292.50
2022-08-11T09:56:33.160Z,309.38
2022-08-11T09:57:33.199Z,236.25
2022-08-11T09:58:42.549Z,253.12
2022-08-11T09:59:34.144Z,270.00
2022-08-11T10:00:33.130Z,253.12
2022-08-11T10:01:33.223Z,270.00
2022-08-11T10:02:33.095Z,410.62
2022-08-11T10:03:40.275Z,264.38
2022-08-11T10:04:33.072Z,399.38
2022-08-11T10:05:33.076Z,247.50
2022-08-11T10:06:34.405Z,309.38
2022-08-11T10:07:33.042Z,973.12
2022-08-11T10:08:33.028Z,225.00
2022-08-11T10:09:33.019Z,157.50
2022-08-11T10:10:33.021Z,168.75
2022-08-11T10:11:33.002Z,151.88
2022-08-11T10:12:32.989Z,140.62
2022-08-11T10:14:31.429Z,123.75
2022-08-11T10:14:43.974Z,219.38
2022-08-11T10:15:34.017Z,146.25
2022-08-11T10:16:32.965Z,264.38
2022-08-11T10:17:33.051Z,253.12
2022-08-11T10:18:32.921Z,309.38
2022-08-11T10:19:32.913Z,270.00
2022-08-11T10:20:32.900Z,140.62
2022-08-11T10:21:32.904Z,151.88
2022-08-11T10:22:33.150Z,247.50
2022-08-11T10:23:32.880Z,151.88
2022-08-11T10:24:32.858Z,241.88
2022-08-11T10:25:32.846Z,1316.25
2022-08-11T10:26:32.851Z,202.50
2022-08-11T10:28:16.876Z,1209.38
2022-08-11T10:28:50.005Z,1243.12
2022-08-11T10:29:37.578Z,275.62
2022-08-11T10:30:33.792Z,275.62
2022-08-11T10:31:45.222Z,376.88
2022-08-11T10:32:33.768Z,196.88
2022-08-11T10:33:37.670Z,292.50
2022-08-11T10:34:32.748Z,489.38
2022-08-11T10:35:32.740Z,388.12
2022-08-11T10:36:32.741Z,607.50
2022-08-11T10:38:08.306Z,1085.62
2022-08-11T10:38:38.732Z,123.75
2022-08-11T10:39:32.764Z,146.25
2022-08-11T10:40:32.723Z,180.00
2022-08-11T10:41:32.692Z,343.12
2022-08-11T10:42:55.214Z,315.00
2022-08-11T10:44:02.192Z,185.62
2022-08-11T10:44:33.641Z,174.38
2022-08-11T10:45:32.631Z,1372.50
2022-08-11T10:46:32.634Z,343.12
2022-08-11T10:47:32.618Z,562.50
2022-08-11T10:48:32.602Z,129.38
2022-08-11T10:49:32.593Z,956.25
2022-08-11T10:50:32.579Z,438.75
2022-08-11T10:51:50.714Z,213.75
2022-08-11T10:52:33.615Z,393.75
2022-08-11T10:53:32.572Z,793.12
2022-08-11T10:54:32.534Z,315.00
2022-08-11T10:55:32.532Z,500.62
2022-08-11T10:56:34.014Z,236.25
2022-08-11T10:57:32.649Z,146.25
2022-08-11T10:58:33.315Z,151.88
2022-08-11T10:59:32.483Z,213.75
2022-08-11T11:00:32.471Z,168.75
2022-08-11T11:01:32.539Z,129.38
2022-08-11T11:02:32.450Z,146.25
2022-08-11T11:03:32.544Z,157.50
2022-08-11T11:04:37.463Z,129.38
2022-08-11T11:05:32.443Z,129.38
2022-08-11T11:06:32.448Z,135.00
2022-08-11T11:07:32.402Z,208.12
2022-08-11T11:08:32.408Z,1603.12
2022-08-11T11:09:32.692Z,219.38
2022-08-11T11:10:32.370Z,1552.50
2022-08-11T11:11:32.375Z,1006.88
2022-08-11T11:12:32.347Z,1209.38
2022-08-11T11:13:32.333Z,438.75
2022-08-11T11:14:32.325Z,365.62
2022-08-11T11:15:32.309Z,455.62
2022-08-11T11:16:32.316Z,247.50
2022-08-11T11:17:37.310Z,1125.00
2022-08-11T11:18:32.298Z,236.25
2022-08-11T11:19:32.294Z,376.88
2022-08-11T11:20:35.829Z,196.88
2022-08-11T11:21:33.263Z,157.50
2022-08-11T11:22:32.233Z,174.38
2022-08-11T11:23:32.226Z,185.62
2022-08-11T11:24:32.216Z,450.00
2022-08-11T11:25:32.210Z,270.00
2022-08-11T11:26:32.190Z,1186.88
2022-08-11T11:27:32.191Z,1096.88
2022-08-11T11:28:32.170Z,1046.25
2022-08-11T11:29:32.164Z,2846.25
2022-08-11T11:30:37.170Z,3751.88
2022-08-11T11:31:32.162Z,2255.62
2022-08-11T11:32:32.295Z,551.25
2022-08-11T11:33:32.125Z,759.38
2022-08-11T11:34:32.105Z,883.12
2022-08-11T11:35:32.117Z,213.75
2022-08-11T11:36:32.084Z,883.12
2022-08-11T11:37:32.088Z,140.62
2022-08-11T11:38:32.066Z,146.25
2022-08-11T11:39:32.099Z,208.12
2022-08-11T11:40:32.353Z,157.50
2022-08-11T11:41:32.035Z,140.62
2022-08-11T11:42:32.047Z,140.62
2022-08-11T11:43:37.042Z,140.62
2022-08-11T11:44:32.023Z,140.62
2022-08-11T11:45:32.012Z,140.62
2022-08-11T11:46:31.981Z,140.62
2022-08-11T11:47:32.977Z,174.38
2022-08-11T11:48:31.967Z,146.25
2022-08-11T11:49:31.951Z,151.88
2022-08-11T11:50:33.141Z,405.00
2022-08-11T11:51:31.924Z,360.00
2022-08-11T11:52:31.922Z,270.00
2022-08-11T11:53:31.905Z,163.12
2022-08-11T11:54:31.907Z,562.50
2022-08-11T11:55:31.912Z,495.00
2022-08-11T11:56:36.892Z,1411.88
2022-08-11T11:57:31.894Z,3268.12
2022-08-11T11:58:31.875Z,2075.62
2022-08-11T11:59:31.839Z,3386.25
2022-08-11T12:00:33.418Z,3268.12
2022-08-11T12:01:31.818Z,3431.25
2022-08-11T12:02:32.228Z,3712.50
2022-08-11T12:03:31.846Z,3712.50
2022-08-11T12:04:31.785Z,3656.25
2022-08-11T12:05:31.776Z,3436.88
2022-08-11T12:06:32.168Z,3290.62
2022-08-11T12:07:31.793Z,3448.12
2022-08-11T12:08:31.745Z,3673.12
2022-08-11T12:09:36.758Z,3785.62
2022-08-11T12:10:31.833Z,3723.75
2022-08-11T12:11:31.743Z,3639.38
2022-08-11T12:12:31.721Z,3628.12
2022-08-11T12:13:31.693Z,3751.88
2022-08-11T12:14:31.682Z,3690.00
2022-08-11T12:16:04.449Z,3639.38
2022-08-11T12:16:36.462Z,3723.75
2022-08-11T12:17:32.121Z,3723.75
2022-08-11T12:18:31.697Z,3616.88
2022-08-11T12:19:35.592Z,3234.38
2022-08-11T12:20:34.255Z,3386.25
2022-08-11T12:21:31.614Z,3425.62
2022-08-11T12:22:36.634Z,2885.62
2022-08-11T12:23:31.595Z,3189.38
2022-08-11T12:24:31.583Z,3740.62
2022-08-11T12:25:31.573Z,3577.50
2022-08-11T12:26:31.564Z,3470.62
2022-08-11T12:27:31.559Z,3465.00
2022-08-11T12:28:31.552Z,3397.50
2022-08-11T12:29:31.538Z,3465.00
2022-08-11T12:30:31.613Z,3566.25
2022-08-11T12:31:31.515Z,3588.75
2022-08-11T12:32:31.516Z,3616.88
2022-08-11T12:33:39.459Z,3504.38
2022-08-11T12:34:31.487Z,3279.38
2022-08-11T12:35:31.473Z,3245.62
2022-08-11T12:36:31.478Z,2964.38
2022-08-11T12:37:31.518Z,2750.62
2022-08-11T12:38:31.441Z,2947.50
2022-08-11T12:40:16.095Z,1794.38
2022-08-11T12:40:42.692Z,303.75
2022-08-11T12:41:32.532Z,151.88
2022-08-11T12:42:31.539Z,146.25
2022-08-11T12:43:38.354Z,135.00
2022-08-11T12:44:37.410Z,129.38
2022-08-11T12:45:31.376Z,123.75
2022-08-11T12:46:31.371Z,123.75
2022-08-11T12:47:31.360Z,123.75
2022-08-11T12:48:57.401Z,123.75
2022-08-11T12:49:32.338Z,118.12
2022-08-11T12:50:31.322Z,118.12
2022-08-11T12:51:31.312Z,118.12
2022-08-11T12:52:32.304Z,118.12
2022-08-11T12:53:31.302Z,118.12
2022-08-11T12:54:31.284Z,118.12
2022-08-11T12:55:36.297Z,112.50
2022-08-11T12:56:31.263Z,118.12
2022-08-11T12:57:37.185Z,118.12
2022-08-11T12:58:32.247Z,112.50
2022-08-11T12:59:31.231Z,118.12
2022-08-11T13:00:31.427Z,118.12
2022-08-11T13:01:31.335Z,118.12
2022-08-11T13:02:31.200Z,112.50
2022-08-11T13:03:31.200Z,112.50
2022-08-11T13:04:31.178Z,112.50
2022-08-11T13:05:31.175Z,112.50
2022-08-11T13:06:36.177Z,112.50
2022-08-11T13:07:50.611Z,112.50
2022-08-11T13:08:32.168Z,101.25
2022-08-11T13:09:31.125Z,106.88
2022-08-11T13:10:31.120Z,106.88
2022-08-11T13:11:56.743Z,112.50
2022-08-11T13:12:32.092Z,106.88
2022-08-11T13:13:55.698Z,112.50
2022-08-11T13:14:32.070Z,112.50
2022-08-11T13:15:31.062Z,112.50
2022-08-11T13:16:31.053Z,112.50
2022-08-11T13:17:44.145Z,112.50
2022-08-11T13:18:32.042Z,112.50
2022-08-11T13:19:36.041Z,112.50
2022-08-11T13:20:31.032Z,112.50
2022-08-11T13:21:31.035Z,112.50
2022-08-11T13:22:32.635Z,112.50
2022-08-11T13:23:30.986Z,106.88
2022-08-11T13:24:30.966Z,106.88
2022-08-11T13:25:30.956Z,106.88
2022-08-11T13:26:48.042Z,106.88
2022-08-11T13:27:31.940Z,106.88
2022-08-11T13:28:30.939Z,106.88
2022-08-11T13:29:30.914Z,106.88
2022-08-11T13:30:32.625Z,112.50
2022-08-11T13:31:30.894Z,106.88
2022-08-11T13:32:35.902Z,106.88
2022-08-11T13:33:30.911Z,112.50
2022-08-11T13:34:30.887Z,112.50
2022-08-11T13:35:30.853Z,112.50
2022-08-11T13:36:30.837Z,112.50
2022-08-11T13:38:17.486Z,112.50
2022-08-11T13:38:32.230Z,106.88
2022-08-11T13:39:30.966Z,106.88
2022-08-11T13:40:45.861Z,106.88
2022-08-11T13:41:31.784Z,101.25
2022-08-11T13:42:30.774Z,101.25
2022-08-11T13:43:30.787Z,106.88
2022-08-11T13:44:30.751Z,101.25
2022-08-11T13:45:35.780Z,101.25
2022-08-11T13:46:30.755Z,101.25
2022-08-11T13:47:30.746Z,106.88
2022-08-11T13:48:30.708Z,101.25
2022-08-11T13:49:30.714Z,106.88
2022-08-11T13:50:30.690Z,101.25
2022-08-11T13:51:34.760Z,101.25
2022-08-11T13:52:30.670Z,101.25
2022-08-11T13:53:30.659Z,101.25
2022-08-11T13:54:30.663Z,101.25
2022-08-11T13:55:45.121Z,101.25
2022-08-11T13:56:31.626Z,101.25
2022-08-11T13:58:08.423Z,101.25
2022-08-11T13:58:40.454Z,95.62
2022-08-11T13:59:31.401Z,101.25
2022-08-11T14:00:30.605Z,101.25
2022-08-11T14:02:21.286Z,101.25
2022-08-11T14:02:31.717Z,101.25
2022-08-11T14:04:30.204Z,101.25
2022-08-11T14:04:32.221Z,101.25
2022-08-11T14:05:30.529Z,95.62
2022-08-11T14:06:30.518Z,101.25
2022-08-11T14:07:30.507Z,101.25
2022-08-11T14:08:37.854Z,106.88
2022-08-11T14:09:31.496Z,101.25
2022-08-11T14:10:30.477Z,101.25
2022-08-11T14:12:23.700Z,106.88
2022-08-11T14:12:31.480Z,106.88
2022-08-11T14:13:41.209Z,101.25
2022-08-11T14:14:31.444Z,95.62
2022-08-11T14:15:30.421Z,101.25
2022-08-11T14:16:30.411Z,101.25
2022-08-11T14:17:47.038Z,95.62
2022-08-11T14:18:31.391Z,101.25
2022-08-11T14:19:30.387Z,101.25
2022-08-11T14:20:38.224Z,101.25
2022-08-11T14:21:31.356Z,101.25
2022-08-11T14:22:30.348Z,106.88
2022-08-11T14:23:30.335Z,106.88
2022-08-11T14:24:35.361Z,101.25
2022-08-11T14:25:59.352Z,106.88
2022-08-11T14:26:31.337Z,106.88
2022-08-11T14:27:46.059Z,106.88
2022-08-11T14:28:43.805Z,101.25
2022-08-11T14:29:31.283Z,95.62
2022-08-11T14:30:30.259Z,95.62
2022-08-11T14:31:30.249Z,90.00
2022-08-11T14:32:30.239Z,90.00
2022-08-11T14:33:58.844Z,90.00
2022-08-11T14:34:31.265Z,90.00
2022-08-11T14:35:30.205Z,95.62
2022-08-11T14:36:30.194Z,95.62
2022-08-11T14:37:35.205Z,95.62
2022-08-11T14:38:30.197Z,101.25
2022-08-11T14:39:30.240Z,101.25
2022-08-11T14:40:31.824Z,106.88
2022-08-11T14:41:30.141Z,101.25
2022-08-11T14:42:30.134Z,101.25
2022-08-11T14:44:02.770Z,95.62
2022-08-11T14:44:31.120Z,95.62
2022-08-11T14:45:58.425Z,90.00
2022-08-11T14:47:30.076Z,101.25
2022-08-11T14:48:30.156Z,95.62
2022-08-11T14:49:30.064Z,95.62
2022-08-11T14:50:35.071Z,95.62
2022-08-11T14:51:30.061Z,95.62
2022-08-11T14:52:30.048Z,101.25
2022-08-11T14:53:30.011Z,101.25
2022-08-11T14:54:30.013Z,101.25
2022-08-11T14:55:29.990Z,90.00
2022-08-11T14:56:29.980Z,90.00
2022-08-11T14:57:54.259Z,90.00
2022-08-11T14:58:30.959Z,90.00
2022-08-11T14:59:29.957Z,90.00
2022-08-11T15:00:29.972Z,95.62
2022-08-11T15:01:30.053Z,90.00
2022-08-11T15:02:29.919Z,95.62
2022-08-11T15:03:34.930Z,95.62
2022-08-11T15:04:29.919Z,90.00
2022-08-11T15:05:30.919Z,90.00
2022-08-11T15:06:29.873Z,90.00
2022-08-11T15:07:30.080Z,90.00
2022-08-11T15:08:29.853Z,84.38
2022-08-11T15:09:29.852Z,90.00
2022-08-11T15:10:29.886Z,90.00
2022-08-11T15:11:29.820Z,84.38
2022-08-11T15:12:32.687Z,78.75
2022-08-11T15:13:29.797Z,84.38
2022-08-11T15:14:29.790Z,84.38
2022-08-11T15:15:29.787Z,84.38
2022-08-11T15:16:34.795Z,84.38
2022-08-11T15:17:30.862Z,84.38
2022-08-11T15:18:30.771Z,84.38
2022-08-11T15:19:29.733Z,84.38
2022-08-11T15:20:30.747Z,90.00
2022-08-11T15:21:29.711Z,84.38
2022-08-11T15:22:29.705Z,84.38
2022-08-11T15:23:29.688Z,78.75
2022-08-11T15:24:31.158Z,78.75
2022-08-11T15:25:29.677Z,78.75
2022-08-11T15:26:29.658Z,84.38
2022-08-11T15:27:29.795Z,84.38
2022-08-11T15:28:29.639Z,84.38
2022-08-11T15:29:34.646Z,84.38
2022-08-11T15:30:32.833Z,84.38
2022-08-11T15:31:29.627Z,78.75
2022-08-11T15:32:29.594Z,78.75
2022-08-11T15:33:29.585Z,67.50
2022-08-11T15:34:29.585Z,78.75
2022-08-11T15:35:38.956Z,84.38
2022-08-11T15:36:30.555Z,84.38
2022-08-11T15:37:29.721Z,78.75
2022-08-11T15:38:29.530Z,78.75
2022-08-11T15:39:29.559Z,78.75
2022-08-11T15:40:31.978Z,78.75
2022-08-11T15:41:29.497Z,78.75
2022-08-11T15:42:34.545Z,73.12
2022-08-11T15:43:29.562Z,73.12
2022-08-11T15:45:00.615Z,78.75
2022-08-11T15:45:30.461Z,78.75
2022-08-11T15:46:29.459Z,78.75
2022-08-11T15:47:29.503Z,78.75
2022-08-11T15:48:29.430Z,78.75
2022-08-11T15:50:12.040Z,78.75
2022-08-11T15:50:30.410Z,73.12
2022-08-11T15:51:29.393Z,78.75
2022-08-11T15:52:29.378Z,78.75
2022-08-11T15:53:29.366Z,84.38
2022-08-11T15:54:29.357Z,78.75
2022-08-11T15:55:34.380Z,78.75
2022-08-11T15:56:29.368Z,78.75
2022-08-11T15:57:29.383Z,78.75
2022-08-11T15:58:30.317Z,78.75
2022-08-11T15:59:42.397Z,78.75
2022-08-11T16:00:30.294Z,78.75
2022-08-11T16:01:29.351Z,73.12
2022-08-11T16:02:29.300Z,73.12
2022-08-11T16:03:54.375Z,73.12
2022-08-11T16:04:30.252Z,67.50
2022-08-11T16:05:45.930Z,73.12
2022-08-11T16:06:30.239Z,73.12
2022-08-11T16:07:29.243Z,73.12
2022-08-11T16:08:34.305Z,73.12
2022-08-11T16:09:29.194Z,73.12
2022-08-11T16:10:30.184Z,73.12
2022-08-11T16:11:29.191Z,73.12
2022-08-11T16:12:29.167Z,73.12
2022-08-11T16:13:29.151Z,73.12
2022-08-11T16:14:29.147Z,73.12
2022-08-11T16:15:29.131Z,73.12
2022-08-11T16:16:29.134Z,73.12
2022-08-11T16:17:29.160Z,73.12
2022-08-11T16:18:29.102Z,73.12
2022-08-11T16:19:34.111Z,73.12
2022-08-11T16:20:29.091Z,73.12
2022-08-11T16:21:35.214Z,73.12
2022-08-11T16:22:30.056Z,73.12
2022-08-11T16:23:29.045Z,73.12
2022-08-11T16:27:04.810Z,73.12
2022-08-11T16:27:04.892Z,73.12
2022-08-11T16:27:11.733Z,73.12
2022-08-11T16:27:30.004Z,73.12
2022-08-11T16:28:28.994Z,67.50
2022-08-11T16:29:28.982Z,67.50
2022-08-11T16:30:35.161Z,67.50
2022-08-11T16:31:28.971Z,61.88
2022-08-11T16:32:28.961Z,56.25
2022-08-11T16:33:50.143Z,56.25
2022-08-11T16:34:29.927Z,50.62
2022-08-11T16:35:28.916Z,56.25
2022-08-11T16:36:28.920Z,50.62
2022-08-11T16:37:28.977Z,50.62
2022-08-11T16:38:28.889Z,50.62
2022-08-11T16:39:28.890Z,56.25
2022-08-11T16:40:28.864Z,56.25
2022-08-11T16:41:33.887Z,50.62
2022-08-11T16:43:06.356Z,50.62